sensor_id;sensor_type;location;lat;lon;timestamp;pressure;altitude;pressure_sealevel;temperature;humidity
12536;BME280;6334;48.696;2.114;2023-03-01T00:01:57;100915.64;;;2.31;48.08
12536;BME280;6334;48.696;2.114;2023-03-01T00:04:26;100896.53;;;2.14;48.88
12536;BME280;6334;48.696;2.114;2023-03-01T00:06:56;100915.72;;;2.36;48.92
12536;BME280;6334;48.696;2.114;2023-03-01T00:09:25;100909.97;;;2.33;48.67
12536;BME280;6334;48.696;2.114;2023-03-01T00:11:55;100913.72;;;2.35;48.92
12536;BME280;6334;48.696;2.114;2023-03-01T00:14:26;100907.23;;;2.25;48.92
12536;BME280;6334;48.696;2.114;2023-03-01T00:16:55;100915.31;;;2.24;48.99
12536;BME280;6334;48.696;2.114;2023-03-01T00:19:26;100918.52;;;1.86;50.00
12536;BME280;6334;48.696;2.114;2023-03-01T00:21:55;100917.77;;;1.80;50.28
12536;BME280;6334;48.696;2.114;2023-03-01T00:24:25;100919.56;;;2.23;49.04
12536;BME280;6334;48.696;2.114;2023-03-01T00:26:55;100918.41;;;2.18;48.98
12536;BME280;6334;48.696;2.114;2023-03-01T00:29:24;100921.78;;;2.15;49.29
12536;BME280;6334;48.696;2.114;2023-03-01T00:31:53;100912.44;;;1.93;49.79
12536;BME280;6334;48.696;2.114;2023-03-01T00:34:24;100918.50;;;1.88;49.72
12536;BME280;6334;48.696;2.114;2023-03-01T00:36:57;100918.00;;;1.77;50.28
12536;BME280;6334;48.696;2.114;2023-03-01T00:39:26;100919.69;;;2.09;49.48
12536;BME280;6334;48.696;2.114;2023-03-01T00:41:56;100919.12;;;2.09;49.00
12536;BME280;6334;48.696;2.114;2023-03-01T00:44:26;100912.30;;;2.07;49.06
12536;BME280;6334;48.696;2.114;2023-03-01T00:46:55;100912.90;;;1.85;49.77
12536;BME280;6334;48.696;2.114;2023-03-01T00:49:25;100912.09;;;1.79;50.17
12536;BME280;6334;48.696;2.114;2023-03-01T00:51:55;100908.33;;;2.02;49.56
12536;BME280;6334;48.696;2.114;2023-03-01T00:54:25;100913.22;;;1.94;49.60
12536;BME280;6334;48.696;2.114;2023-03-01T00:56:55;100901.85;;;1.67;49.90
12536;BME280;6334;48.696;2.114;2023-03-01T00:59:25;100908.65;;;1.92;49.49
12536;BME280;6334;48.696;2.114;2023-03-01T01:01:54;100916.97;;;1.97;49.36
12536;BME280;6334;48.696;2.114;2023-03-01T01:04:24;100924.51;;;2.16;49.48
12536;BME280;6334;48.696;2.114;2023-03-01T01:06:54;100918.59;;;1.80;50.19
12536;BME280;6334;48.696;2.114;2023-03-01T01:09:23;100917.87;;;2.00;49.41
12536;BME280;6334;48.696;2.114;2023-03-01T01:11:53;100909.95;;;1.94;49.35
12536;BME280;6334;48.696;2.114;2023-03-01T01:14:24;100924.27;;;1.89;50.13
12536;BME280;6334;48.696;2.114;2023-03-01T01:16:54;100924.87;;;1.99;49.52
12536;BME280;6334;48.696;2.114;2023-03-01T01:19:24;100924.41;;;2.15;49.01
12536;BME280;6334;48.696;2.114;2023-03-01T01:21:54;100924.67;;;2.08;49.35
12536;BME280;6334;48.696;2.114;2023-03-01T01:24:24;100924.34;;;2.11;49.52
12536;BME280;6334;48.696;2.114;2023-03-01T01:26:53;100927.77;;;1.77;50.06
12536;BME280;6334;48.696;2.114;2023-03-01T01:29:24;100923.23;;;2.19;49.60
12536;BME280;6334;48.696;2.114;2023-03-01T01:31:53;100926.48;;;1.84;50.47
12536;BME280;6334;48.696;2.114;2023-03-01T01:34:23;100908.56;;;1.77;50.25
12536;BME280;6334;48.696;2.114;2023-03-01T01:36:54;100907.77;;;1.97;50.00
12536;BME280;6334;48.696;2.114;2023-03-01T01:39:23;100907.84;;;2.02;49.54
12536;BME280;6334;48.696;2.114;2023-03-01T01:41:53;100906.27;;;2.15;49.60
12536;BME280;6334;48.696;2.114;2023-03-01T01:44:26;100906.00;;;2.08;49.57
12536;BME280;6334;48.696;2.114;2023-03-01T01:47:07;100906.12;;;1.89;50.01
12536;BME280;6334;48.696;2.114;2023-03-01T01:52:16;100908.06;;;1.97;49.54
12536;BME280;6334;48.696;2.114;2023-03-01T01:54:59;100896.55;;;2.07;49.03
12536;BME280;6334;48.696;2.114;2023-03-01T01:57:29;100900.00;;;2.16;49.16
12536;BME280;6334;48.696;2.114;2023-03-01T01:59:57;100902.39;;;2.17;49.23
12536;BME280;6334;48.696;2.114;2023-03-01T02:02:26;100897.54;;;1.99;49.67
12536;BME280;6334;48.696;2.114;2023-03-01T02:05:01;100890.87;;;1.89;49.74
12536;BME280;6334;48.696;2.114;2023-03-01T02:07:25;100892.34;;;2.13;49.53
12536;BME280;6334;48.696;2.114;2023-03-01T02:09:55;100887.03;;;2.07;49.43
12536;BME280;6334;48.696;2.114;2023-03-01T02:12:26;100878.49;;;2.16;49.67
12536;BME280;6334;48.696;2.114;2023-03-01T02:14:57;100876.07;;;2.04;49.72
12536;BME280;6334;48.696;2.114;2023-03-01T02:17:27;100874.52;;;2.02;49.70
12536;BME280;6334;48.696;2.114;2023-03-01T02:22:41;100861.02;;;1.98;49.63
12536;BME280;6334;48.696;2.114;2023-03-01T02:25:21;100865.51;;;1.97;50.11
12536;BME280;6334;48.696;2.114;2023-03-01T02:28:08;100858.44;;;1.88;50.00
12536;BME280;6334;48.696;2.114;2023-03-01T02:30:35;100864.75;;;1.92;49.84
12536;BME280;6334;48.696;2.114;2023-03-01T02:33:07;100861.25;;;2.00;49.83
12536;BME280;6334;48.696;2.114;2023-03-01T02:35:37;100867.72;;;1.68;51.18
12536;BME280;6334;48.696;2.114;2023-03-01T02:38:08;100855.15;;;1.70;51.09
12536;BME280;6334;48.696;2.114;2023-03-01T02:40:38;100864.55;;;1.65;51.64
12536;BME280;6334;48.696;2.114;2023-03-01T02:43:09;100840.04;;;1.61;51.57
12536;BME280;6334;48.696;2.114;2023-03-01T02:45:42;100854.34;;;1.70;51.47
12536;BME280;6334;48.696;2.114;2023-03-01T02:48:09;100851.21;;;1.70;51.23
12536;BME280;6334;48.696;2.114;2023-03-01T02:50:44;100858.47;;;1.73;51.43
12536;BME280;6334;48.696;2.114;2023-03-01T02:53:16;100849.63;;;1.60;50.74
12536;BME280;6334;48.696;2.114;2023-03-01T02:55:43;100852.34;;;1.61;51.48
12536;BME280;6334;48.696;2.114;2023-03-01T02:58:14;100843.59;;;1.31;52.44
12536;BME280;6334;48.696;2.114;2023-03-01T03:00:44;100843.34;;;1.65;51.51
12536;BME280;6334;48.696;2.114;2023-03-01T03:03:18;100838.58;;;1.79;50.80
12536;BME280;6334;48.696;2.114;2023-03-01T03:05:48;100839.20;;;1.51;52.40
12536;BME280;6334;48.696;2.114;2023-03-01T03:08:18;100838.77;;;1.80;51.86
12536;BME280;6334;48.696;2.114;2023-03-01T03:10:49;100841.14;;;1.71;51.73
12536;BME280;6334;48.696;2.114;2023-03-01T03:13:19;100840.94;;;1.74;51.33
12536;BME280;6334;48.696;2.114;2023-03-01T03:15:50;100836.36;;;1.11;53.40
12536;BME280;6334;48.696;2.114;2023-03-01T03:18:20;100831.58;;;1.52;52.06
12536;BME280;6334;48.696;2.114;2023-03-01T03:20:51;100828.34;;;1.26;52.65
12536;BME280;6334;48.696;2.114;2023-03-01T03:23:21;100830.30;;;1.54;52.22
12536;BME280;6334;48.696;2.114;2023-03-01T03:25:51;100824.70;;;1.50;52.22
12536;BME280;6334;48.696;2.114;2023-03-01T03:28:23;100822.17;;;1.22;53.04
12536;BME280;6334;48.696;2.114;2023-03-01T03:30:53;100809.85;;;1.49;52.49
12536;BME280;6334;48.696;2.114;2023-03-01T03:33:24;100818.78;;;1.49;52.26
12536;BME280;6334;48.696;2.114;2023-03-01T03:35:54;100818.39;;;1.26;53.28
12536;BME280;6334;48.696;2.114;2023-03-01T03:38:25;100822.71;;;1.38;52.66
12536;BME280;6334;48.696;2.114;2023-03-01T03:43:31;100822.52;;;1.41;52.76
12536;BME280;6334;48.696;2.114;2023-03-01T03:46:01;100819.19;;;1.40;52.78
12536;BME280;6334;48.696;2.114;2023-03-01T03:48:35;100814.45;;;1.01;53.67
12536;BME280;6334;48.696;2.114;2023-03-01T03:51:05;100811.67;;;1.16;53.35
12536;BME280;6334;48.696;2.114;2023-03-01T03:53:35;100808.98;;;1.20;52.94
12536;BME280;6334;48.696;2.114;2023-03-01T03:56:06;100810.47;;;0.99;54.06
12536;BME280;6334;48.696;2.114;2023-03-01T03:58:36;100808.01;;;1.31;53.13
12536;BME280;6334;48.696;2.114;2023-03-01T04:01:07;100807.95;;;1.27;53.19
12536;BME280;6334;48.696;2.114;2023-03-01T04:03:36;100814.89;;;1.15;53.67
12536;BME280;6334;48.696;2.114;2023-03-01T04:06:07;100818.69;;;1.07;53.94
12536;BME280;6334;48.696;2.114;2023-03-01T04:08:37;100816.84;;;1.21;53.58
12536;BME280;6334;48.696;2.114;2023-03-01T04:11:08;100818.88;;;1.04;54.26
12536;BME280;6334;48.696;2.114;2023-03-01T04:13:54;100816.95;;;0.95;54.58
12536;BME280;6334;48.696;2.114;2023-03-01T04:16:23;100806.44;;;1.32;53.50
12536;BME280;6334;48.696;2.114;2023-03-01T04:18:54;100811.80;;;1.14;54.03
12536;BME280;6334;48.696;2.114;2023-03-01T04:21:24;100815.28;;;1.17;53.63
12536;BME280;6334;48.696;2.114;2023-03-01T04:23:55;100810.27;;;1.10;53.83
12536;BME280;6334;48.696;2.114;2023-03-01T04:26:25;100803.53;;;1.23;53.43
12536;BME280;6334;48.696;2.114;2023-03-01T04:28:56;100808.59;;;1.41;53.18
12536;BME280;6334;48.696;2.114;2023-03-01T04:31:26;100803.56;;;1.21;53.47
12536;BME280;6334;48.696;2.114;2023-03-01T04:33:57;100805.26;;;1.05;54.32
12536;BME280;6334;48.696;2.114;2023-03-01T04:36:29;100801.05;;;1.01;54.27
12536;BME280;6334;48.696;2.114;2023-03-01T04:38:59;100799.18;;;1.14;53.96
12536;BME280;6334;48.696;2.114;2023-03-01T04:41:29;100798.05;;;0.95;54.76
12536;BME280;6334;48.696;2.114;2023-03-01T04:43:59;100801.89;;;0.97;54.69
12536;BME280;6334;48.696;2.114;2023-03-01T04:46:30;100793.50;;;0.84;54.75
12536;BME280;6334;48.696;2.114;2023-03-01T04:49:01;100795.70;;;0.63;55.69
12536;BME280;6334;48.696;2.114;2023-03-01T04:51:31;100783.00;;;0.71;55.30
12536;BME280;6334;48.696;2.114;2023-03-01T04:54:01;100800.52;;;0.71;55.96
12536;BME280;6334;48.696;2.114;2023-03-01T04:56:32;100788.02;;;0.94;54.85
12536;BME280;6334;48.696;2.114;2023-03-01T04:59:02;100786.28;;;0.44;56.45
12536;BME280;6334;48.696;2.114;2023-03-01T05:01:32;100790.23;;;0.59;56.18
12536;BME280;6334;48.696;2.114;2023-03-01T05:04:02;100791.19;;;0.68;56.04
12536;BME280;6334;48.696;2.114;2023-03-01T05:06:33;100791.06;;;0.60;56.33
12536;BME280;6334;48.696;2.114;2023-03-01T05:09:03;100790.09;;;0.93;55.36
12536;BME280;6334;48.696;2.114;2023-03-01T05:11:34;100787.22;;;0.94;55.01
12536;BME280;6334;48.696;2.114;2023-03-01T05:14:05;100792.70;;;0.80;55.59
12536;BME280;6334;48.696;2.114;2023-03-01T05:16:35;100790.47;;;0.69;56.19
12536;BME280;6334;48.696;2.114;2023-03-01T05:19:06;100786.92;;;0.87;55.42
12536;BME280;6334;48.696;2.114;2023-03-01T05:21:39;100786.93;;;0.44;57.15
12536;BME280;6334;48.696;2.114;2023-03-01T05:24:28;100787.44;;;0.84;55.37
12536;BME280;6334;48.696;2.114;2023-03-01T05:26:58;100782.98;;;0.68;56.18
12536;BME280;6334;48.696;2.114;2023-03-01T05:29:29;100780.06;;;0.88;55.36
12536;BME280;6334;48.696;2.114;2023-03-01T05:32:00;100773.59;;;0.88;55.16
12536;BME280;6334;48.696;2.114;2023-03-01T05:34:33;100775.42;;;0.76;55.77
12536;BME280;6334;48.696;2.114;2023-03-01T05:37:02;100774.81;;;0.83;55.87
12536;BME280;6334;48.696;2.114;2023-03-01T05:39:33;100774.31;;;0.85;55.52
12536;BME280;6334;48.696;2.114;2023-03-01T05:42:03;100775.52;;;0.79;55.71
12536;BME280;6334;48.696;2.114;2023-03-01T05:44:34;100774.29;;;0.78;55.66
12536;BME280;6334;48.696;2.114;2023-03-01T05:47:04;100771.88;;;0.81;55.53
12536;BME280;6334;48.696;2.114;2023-03-01T05:49:35;100769.75;;;0.63;56.63
12536;BME280;6334;48.696;2.114;2023-03-01T05:52:05;100770.59;;;0.71;55.98
12536;BME280;6334;48.696;2.114;2023-03-01T05:54:35;100775.70;;;0.54;56.36
12536;BME280;6334;48.696;2.114;2023-03-01T05:57:05;100779.89;;;0.44;56.89
12536;BME280;6334;48.696;2.114;2023-03-01T05:59:36;100774.09;;;0.61;56.51
12536;BME280;6334;48.696;2.114;2023-03-01T06:02:06;100767.61;;;0.46;56.62
12536;BME280;6334;48.696;2.114;2023-03-01T06:04:37;100777.00;;;0.52;56.70
12536;BME280;6334;48.696;2.114;2023-03-01T06:07:07;100774.70;;;0.45;56.83
12536;BME280;6334;48.696;2.114;2023-03-01T06:09:38;100773.85;;;0.57;56.25
12536;BME280;6334;48.696;2.114;2023-03-01T06:12:08;100764.89;;;0.41;57.21
12536;BME280;6334;48.696;2.114;2023-03-01T06:14:38;100762.54;;;0.40;56.98
12536;BME280;6334;48.696;2.114;2023-03-01T06:17:09;100757.30;;;0.42;56.80
12536;BME280;6334;48.696;2.114;2023-03-01T06:19:39;100760.80;;;0.46;57.14
12536;BME280;6334;48.696;2.114;2023-03-01T06:22:10;100753.67;;;0.50;56.73
12536;BME280;6334;48.696;2.114;2023-03-01T06:24:40;100747.00;;;0.59;56.39
12536;BME280;6334;48.696;2.114;2023-03-01T06:27:11;100751.09;;;0.63;56.68
12536;BME280;6334;48.696;2.114;2023-03-01T06:29:41;100748.75;;;0.58;56.00
12536;BME280;6334;48.696;2.114;2023-03-01T06:32:12;100749.52;;;0.16;57.90
12536;BME280;6334;48.696;2.114;2023-03-01T06:34:42;100746.81;;;0.63;56.13
12536;BME280;6334;48.696;2.114;2023-03-01T06:37:13;100744.59;;;0.30;57.27
12536;BME280;6334;48.696;2.114;2023-03-01T06:39:43;100742.67;;;0.55;56.50
12536;BME280;6334;48.696;2.114;2023-03-01T06:42:14;100741.34;;;0.49;56.58
12536;BME280;6334;48.696;2.114;2023-03-01T06:44:44;100741.17;;;0.65;56.25
12536;BME280;6334;48.696;2.114;2023-03-01T06:47:14;100740.17;;;0.86;56.13
12536;BME280;6334;48.696;2.114;2023-03-01T06:49:45;100728.50;;;0.43;56.51
12536;BME280;6334;48.696;2.114;2023-03-01T06:52:15;100734.17;;;0.70;56.64
12536;BME280;6334;48.696;2.114;2023-03-01T06:54:46;100736.89;;;0.54;57.21
12536;BME280;6334;48.696;2.114;2023-03-01T06:57:16;100737.16;;;0.77;56.39
12536;BME280;6334;48.696;2.114;2023-03-01T06:59:47;100738.11;;;0.45;57.15
12536;BME280;6334;48.696;2.114;2023-03-01T07:02:17;100734.33;;;0.55;56.96
12536;BME280;6334;48.696;2.114;2023-03-01T07:04:51;100731.00;;;0.69;57.12
12536;BME280;6334;48.696;2.114;2023-03-01T07:07:21;100728.75;;;0.15;58.06
12536;BME280;6334;48.696;2.114;2023-03-01T07:09:51;100728.71;;;0.52;57.87
12536;BME280;6334;48.696;2.114;2023-03-01T07:12:22;100726.23;;;0.35;58.32
12536;BME280;6334;48.696;2.114;2023-03-01T07:14:52;100726.81;;;0.52;57.83
12536;BME280;6334;48.696;2.114;2023-03-01T07:17:23;100719.06;;;0.40;58.13
12536;BME280;6334;48.696;2.114;2023-03-01T07:19:53;100724.91;;;0.41;58.36
12536;BME280;6334;48.696;2.114;2023-03-01T07:22:24;100724.91;;;0.11;59.37
12536;BME280;6334;48.696;2.114;2023-03-01T07:24:54;100720.38;;;0.44;57.72
12536;BME280;6334;48.696;2.114;2023-03-01T07:27:25;100723.51;;;0.55;57.84
12536;BME280;6334;48.696;2.114;2023-03-01T07:29:55;100724.87;;;0.46;58.02
12536;BME280;6334;48.696;2.114;2023-03-01T07:32:26;100722.02;;;0.22;58.93
12536;BME280;6334;48.696;2.114;2023-03-01T07:34:57;100722.89;;;0.47;58.25
12536;BME280;6334;48.696;2.114;2023-03-01T07:37:27;100723.05;;;0.70;57.36
12536;BME280;6334;48.696;2.114;2023-03-01T07:39:57;100727.33;;;0.67;57.64
12536;BME280;6334;48.696;2.114;2023-03-01T07:42:28;100729.34;;;0.37;58.89
12536;BME280;6334;48.696;2.114;2023-03-01T07:45:00;100730.14;;;0.55;58.64
12536;BME280;6334;48.696;2.114;2023-03-01T07:47:30;100735.50;;;0.47;58.57
12536;BME280;6334;48.696;2.114;2023-03-01T07:50:01;100738.05;;;0.62;58.46
12536;BME280;6334;48.696;2.114;2023-03-01T07:52:31;100736.30;;;0.57;59.01
12536;BME280;6334;48.696;2.114;2023-03-01T07:55:01;100737.30;;;0.66;58.37
12536;BME280;6334;48.696;2.114;2023-03-01T07:57:32;100728.33;;;0.61;58.61
12536;BME280;6334;48.696;2.114;2023-03-01T08:00:02;100729.16;;;0.61;58.88
12536;BME280;6334;48.696;2.114;2023-03-01T08:02:33;100734.23;;;0.74;57.94
12536;BME280;6334;48.696;2.114;2023-03-01T08:05:03;100736.59;;;0.65;58.71
12536;BME280;6334;48.696;2.114;2023-03-01T08:07:34;100725.94;;;0.44;59.15
12536;BME280;6334;48.696;2.114;2023-03-01T08:10:04;100734.83;;;0.85;58.20
12536;BME280;6334;48.696;2.114;2023-03-01T08:12:35;100729.23;;;0.63;59.17
12536;BME280;6334;48.696;2.114;2023-03-01T08:15:05;100721.56;;;0.87;58.23
12536;BME280;6334;48.696;2.114;2023-03-01T08:17:36;100732.88;;;1.16;57.83
12536;BME280;6334;48.696;2.114;2023-03-01T08:20:06;100724.40;;;1.22;57.13
12536;BME280;6334;48.696;2.114;2023-03-01T08:22:37;100732.09;;;0.95;57.97
12536;BME280;6334;48.696;2.114;2023-03-01T08:25:07;100726.91;;;1.14;57.73
12536;BME280;6334;48.696;2.114;2023-03-01T08:27:38;100720.48;;;1.26;57.18
12536;BME280;6334;48.696;2.114;2023-03-01T08:30:08;100716.48;;;1.27;57.24
12536;BME280;6334;48.696;2.114;2023-03-01T08:32:39;100712.63;;;1.36;57.04
12536;BME280;6334;48.696;2.114;2023-03-01T08:35:09;100715.28;;;1.12;57.50
12536;BME280;6334;48.696;2.114;2023-03-01T08:37:40;100708.83;;;1.20;58.07
12536;BME280;6334;48.696;2.114;2023-03-01T08:40:11;100711.64;;;1.27;57.58
12536;BME280;6334;48.696;2.114;2023-03-01T08:42:41;100713.27;;;1.49;57.42
12536;BME280;6334;48.696;2.114;2023-03-01T08:45:11;100707.78;;;1.65;56.32
12536;BME280;6334;48.696;2.114;2023-03-01T08:47:42;100693.53;;;1.64;55.98
12536;BME280;6334;48.696;2.114;2023-03-01T08:50:12;100700.98;;;1.59;56.37
12536;BME280;6334;48.696;2.114;2023-03-01T08:52:43;100693.38;;;1.72;56.41
12536;BME280;6334;48.696;2.114;2023-03-01T08:55:13;100696.40;;;1.81;55.45
12536;BME280;6334;48.696;2.114;2023-03-01T08:57:44;100695.59;;;1.91;55.38
12536;BME280;6334;48.696;2.114;2023-03-01T09:00:14;100689.02;;;1.91;54.90
12536;BME280;6334;48.696;2.114;2023-03-01T09:02:45;100690.30;;;1.99;54.41
12536;BME280;6334;48.696;2.114;2023-03-01T09:05:15;100686.70;;;2.05;54.58
12536;BME280;6334;48.696;2.114;2023-03-01T09:07:46;100687.78;;;2.13;53.97
12536;BME280;6334;48.696;2.114;2023-03-01T09:10:16;100683.55;;;2.19;53.38
12536;BME280;6334;48.696;2.114;2023-03-01T09:12:46;100679.53;;;2.09;55.01
12536;BME280;6334;48.696;2.114;2023-03-01T09:15:17;100674.69;;;2.37;53.33
12536;BME280;6334;48.696;2.114;2023-03-01T09:17:47;100666.30;;;2.24;53.94
12536;BME280;6334;48.696;2.114;2023-03-01T09:20:18;100661.48;;;2.22;53.91
12536;BME280;6334;48.696;2.114;2023-03-01T09:22:48;100659.56;;;2.34;53.61
12536;BME280;6334;48.696;2.114;2023-03-01T09:25:19;100657.64;;;2.41;53.62
12536;BME280;6334;48.696;2.114;2023-03-01T09:27:52;100657.05;;;2.44;53.21
12536;BME280;6334;48.696;2.114;2023-03-01T09:30:22;100656.36;;;2.50;53.57
12536;BME280;6334;48.696;2.114;2023-03-01T09:32:53;100652.36;;;2.51;53.14
12536;BME280;6334;48.696;2.114;2023-03-01T09:35:23;100656.67;;;2.52;52.68
12536;BME280;6334;48.696;2.114;2023-03-01T09:37:54;100657.50;;;2.63;52.53
12536;BME280;6334;48.696;2.114;2023-03-01T09:40:25;100651.80;;;2.68;52.29
12536;BME280;6334;48.696;2.114;2023-03-01T09:42:56;100649.50;;;2.74;52.30
12536;BME280;6334;48.696;2.114;2023-03-01T09:45:27;100660.89;;;2.65;52.03
12536;BME280;6334;48.696;2.114;2023-03-01T09:47:56;100653.08;;;2.81;51.41
12536;BME280;6334;48.696;2.114;2023-03-01T09:50:26;100652.60;;;2.61;51.55
12536;BME280;6334;48.696;2.114;2023-03-01T09:53:02;100655.98;;;2.68;51.73
12536;BME280;6334;48.696;2.114;2023-03-01T09:55:33;100651.36;;;2.87;51.54
12536;BME280;6334;48.696;2.114;2023-03-01T10:00:49;100631.41;;;2.84;50.79
12536;BME280;6334;48.696;2.114;2023-03-01T10:03:36;100632.36;;;2.91;51.35
12536;BME280;6334;48.696;2.114;2023-03-01T10:06:14;100628.47;;;2.99;51.19
12536;BME280;6334;48.696;2.114;2023-03-01T10:11:22;100624.31;;;3.12;50.71
12536;BME280;6334;48.696;2.114;2023-03-01T10:16:48;100617.77;;;3.26;50.93
12536;BME280;6334;48.696;2.114;2023-03-01T10:19:20;100618.18;;;3.35;49.79
12536;BME280;6334;48.696;2.114;2023-03-01T10:21:48;100608.02;;;3.55;49.57
12536;BME280;6334;48.696;2.114;2023-03-01T10:24:18;100611.95;;;3.51;50.62
12536;BME280;6334;48.696;2.114;2023-03-01T10:27:00;100608.52;;;3.43;50.13
12536;BME280;6334;48.696;2.114;2023-03-01T10:29:30;100611.39;;;3.53;50.53
12536;BME280;6334;48.696;2.114;2023-03-01T10:31:59;100614.63;;;3.51;49.51
12536;BME280;6334;48.696;2.114;2023-03-01T10:34:30;100613.41;;;3.66;49.65
12536;BME280;6334;48.696;2.114;2023-03-01T10:37:26;100604.37;;;3.87;49.75
12536;BME280;6334;48.696;2.114;2023-03-01T10:40:08;100611.98;;;3.86;48.56
12536;BME280;6334;48.696;2.114;2023-03-01T10:42:36;100612.44;;;3.72;48.53
12536;BME280;6334;48.696;2.114;2023-03-01T10:50:46;100608.79;;;4.21;49.69
12536;BME280;6334;48.696;2.114;2023-03-01T10:55:49;100605.42;;;4.29;49.06
12536;BME280;6334;48.696;2.114;2023-03-01T10:58:21;100600.02;;;4.16;49.78
12536;BME280;6334;48.696;2.114;2023-03-01T11:00:54;100606.61;;;4.19;48.97
12536;BME280;6334;48.696;2.114;2023-03-01T11:03:24;100601.30;;;4.28;48.46
12536;BME280;6334;48.696;2.114;2023-03-01T11:16:37;100596.48;;;4.23;48.17
12536;BME280;6334;48.696;2.114;2023-03-01T11:21:41;100594.43;;;4.42;47.94
12536;BME280;6334;48.696;2.114;2023-03-01T11:24:11;100575.20;;;4.45;47.90
12536;BME280;6334;48.696;2.114;2023-03-01T11:26:41;100589.73;;;4.54;48.74
12536;BME280;6334;48.696;2.114;2023-03-01T11:29:13;100586.11;;;4.38;47.81
12536;BME280;6334;48.696;2.114;2023-03-01T11:31:43;100585.13;;;4.39;48.33
12536;BME280;6334;48.696;2.114;2023-03-01T11:34:18;100580.76;;;4.43;47.98
12536;BME280;6334;48.696;2.114;2023-03-01T11:36:56;100573.39;;;4.45;48.76
12536;BME280;6334;48.696;2.114;2023-03-01T11:39:30;100567.64;;;4.52;48.18
12536;BME280;6334;48.696;2.114;2023-03-01T11:44:47;100585.33;;;4.32;47.60
12536;BME280;6334;48.696;2.114;2023-03-01T11:47:25;100571.90;;;4.32;48.38
12536;BME280;6334;48.696;2.114;2023-03-01T11:50:20;100577.34;;;4.25;47.92
12536;BME280;6334;48.696;2.114;2023-03-01T11:55:49;100568.77;;;4.25;48.73
12536;BME280;6334;48.696;2.114;2023-03-01T11:58:22;100564.58;;;4.22;48.44
12536;BME280;6334;48.696;2.114;2023-03-01T12:06:10;100560.50;;;4.28;49.10
12536;BME280;6334;48.696;2.114;2023-03-01T12:11:24;100556.91;;;4.18;48.67
12536;BME280;6334;48.696;2.114;2023-03-01T12:22:55;100535.41;;;4.17;48.85
12536;BME280;6334;48.696;2.114;2023-03-01T12:25:23;100528.06;;;4.43;48.23
12536;BME280;6334;48.696;2.114;2023-03-01T12:30:42;100526.06;;;4.24;48.27
12536;BME280;6334;48.696;2.114;2023-03-01T12:38:45;100518.27;;;4.36;48.95
12536;BME280;6334;48.696;2.114;2023-03-01T12:49:52;100482.98;;;4.39;48.37
12536;BME280;6334;48.696;2.114;2023-03-01T12:52:35;100485.11;;;4.46;47.82
12536;BME280;6334;48.696;2.114;2023-03-01T12:55:06;100479.45;;;4.47;47.23
12536;BME280;6334;48.696;2.114;2023-03-01T12:57:39;100474.70;;;4.58;47.71
12536;BME280;6334;48.696;2.114;2023-03-01T13:03:17;100462.95;;;4.58;48.43
12536;BME280;6334;48.696;2.114;2023-03-01T13:06:08;100449.25;;;4.53;47.72
12536;BME280;6334;48.696;2.114;2023-03-01T13:11:40;100443.55;;;4.70;47.74
12536;BME280;6334;48.696;2.114;2023-03-01T13:16:54;100430.20;;;4.80;47.53
12536;BME280;6334;48.696;2.114;2023-03-01T13:19:25;100424.91;;;4.83;47.64
12536;BME280;6334;48.696;2.114;2023-03-01T13:21:54;100420.84;;;4.91;46.85
12536;BME280;6334;48.696;2.114;2023-03-01T13:29:56;100412.42;;;5.01;46.69
12536;BME280;6334;48.696;2.114;2023-03-01T13:32:28;100399.07;;;5.05;46.88
12536;BME280;6334;48.696;2.114;2023-03-01T13:35:01;100400.75;;;5.14;47.08
12536;BME280;6334;48.696;2.114;2023-03-01T13:37:32;100397.61;;;5.29;47.41
12536;BME280;6334;48.696;2.114;2023-03-01T13:40:04;100385.46;;;5.37;47.11
12536;BME280;6334;48.696;2.114;2023-03-01T13:42:38;100394.92;;;5.36;46.33
12536;BME280;6334;48.696;2.114;2023-03-01T13:47:50;100385.67;;;5.59;46.13
12536;BME280;6334;48.696;2.114;2023-03-01T13:50:28;100382.89;;;5.54;46.41
12536;BME280;6334;48.696;2.114;2023-03-01T13:58:20;100375.25;;;5.56;45.95
12536;BME280;6334;48.696;2.114;2023-03-01T14:01:35;100368.53;;;5.61;45.80
12536;BME280;6334;48.696;2.114;2023-03-01T14:03:19;100375.73;;;5.62;46.20
12536;BME280;6334;48.696;2.114;2023-03-01T14:06:15;100367.47;;;5.72;46.63
12536;BME280;6334;48.696;2.114;2023-03-01T14:08:40;100364.00;;;5.68;45.71
12536;BME280;6334;48.696;2.114;2023-03-01T14:16:42;100350.30;;;5.60;46.25
12536;BME280;6334;48.696;2.114;2023-03-01T14:19:13;100359.22;;;5.68;46.66
12536;BME280;6334;48.696;2.114;2023-03-01T14:21:40;100349.11;;;5.84;45.80
12536;BME280;6334;48.696;2.114;2023-03-01T14:24:22;100344.61;;;5.80;46.32
12536;BME280;6334;48.696;2.114;2023-03-01T14:26:52;100339.33;;;5.63;45.34
12536;BME280;6334;48.696;2.114;2023-03-01T14:29:26;100339.53;;;5.77;46.11
12536;BME280;6334;48.696;2.114;2023-03-01T14:32:01;100341.41;;;5.70;45.64
12536;BME280;6334;48.696;2.114;2023-03-01T14:34:26;100331.03;;;5.85;45.82
12536;BME280;6334;48.696;2.114;2023-03-01T14:36:57;100336.25;;;5.79;46.35
12536;BME280;6334;48.696;2.114;2023-03-01T14:39:27;100336.79;;;5.82;46.10
12536;BME280;6334;48.696;2.114;2023-03-01T14:41:57;100329.34;;;5.88;46.65
12536;BME280;6334;48.696;2.114;2023-03-01T14:44:28;100324.75;;;5.78;45.96
12536;BME280;6334;48.696;2.114;2023-03-01T14:46:58;100324.00;;;5.78;46.27
12536;BME280;6334;48.696;2.114;2023-03-01T14:49:29;100317.64;;;5.78;46.03
12536;BME280;6334;48.696;2.114;2023-03-01T14:52:02;100325.45;;;5.89;46.55
12536;BME280;6334;48.696;2.114;2023-03-01T14:54:44;100321.87;;;5.84;46.90
12536;BME280;6334;48.696;2.114;2023-03-01T14:57:16;100313.84;;;5.78;46.25
12536;BME280;6334;48.696;2.114;2023-03-01T14:59:43;100313.70;;;5.72;46.68
12536;BME280;6334;48.696;2.114;2023-03-01T15:02:15;100319.92;;;5.68;46.41
12536;BME280;6334;48.696;2.114;2023-03-01T15:04:46;100327.50;;;5.66;46.50
12536;BME280;6334;48.696;2.114;2023-03-01T15:07:18;100328.66;;;5.65;46.47
12536;BME280;6334;48.696;2.114;2023-03-01T15:09:48;100332.49;;;5.57;46.87
12536;BME280;6334;48.696;2.114;2023-03-01T15:14:58;100315.52;;;5.58;47.37
12536;BME280;6334;48.696;2.114;2023-03-01T15:17:32;100307.63;;;5.55;46.94
12536;BME280;6334;48.696;2.114;2023-03-01T15:20:02;100313.83;;;5.48;46.54